MSR880 DNKN-HECA
Flight info
| Callsign | MSR880 |
|---|---|
| Flight time | 3h 39m |
| Altitude | 39000 |
| Route | KAN UR778 TONBA R778 DITAR M720 CVO |
| Aircraft | A332/H-SDE3GHIJ2J3J5M1RVWXY/LB2D1 |
Departure
| Time | 2026-04-29 05:59 |
|---|---|
| Airport | Mallam Aminu Kano International Airport (DNKN) |
Arrival
| Time | 2026-04-29 09:39 |
|---|---|
| Airport | Cairo International Airport (HECA) |
| Time | Latitude | Longitude | Altitude | Speed | Heading |
|---|---|---|---|---|---|
| 2026-04-29 05:43 | 12.04590 | 8.51977 | 1553 ft | 0 kts | 239° |
| 2026-04-29 05:52 | 12.04579 | 8.51958 | 1554 ft | 6 kts | 240° |
| 2026-04-29 05:52 | 12.04577 | 8.51900 | 1557 ft | 11 kts | 290° |
| 2026-04-29 05:53 | 12.04578 | 8.51811 | 1558 ft | 15 kts | 243° |
| 2026-04-29 05:53 | 12.04520 | 8.51704 | 1560 ft | 18 kts | 242° |
| 2026-04-29 05:53 | 12.04462 | 8.51595 | 1564 ft | 18 kts | 241° |
| 2026-04-29 05:53 | 12.04400 | 8.51477 | 1568 ft | 17 kts | 241° |
| 2026-04-29 05:54 | 12.04345 | 8.51376 | 1567 ft | 16 kts | 239° |
| 2026-04-29 05:54 | 12.04293 | 8.51283 | 1570 ft | 14 kts | 240° |
| 2026-04-29 05:54 | 12.04246 | 8.51197 | 1572 ft | 14 kts | 240° |
| 2026-04-29 05:54 | 12.04199 | 8.51112 | 1573 ft | 14 kts | 241° |
| 2026-04-29 05:55 | 12.04153 | 8.51027 | 1575 ft | 13 kts | 241° |
| 2026-04-29 05:55 | 12.04108 | 8.50945 | 1577 ft | 13 kts | 241° |
| 2026-04-29 05:55 | 12.04088 | 8.50908 | 1577 ft | 0 kts | 240° |
| 2026-04-29 05:56 | 12.04062 | 8.50860 | 1578 ft | 15 kts | 241° |
| 2026-04-29 05:57 | 12.04040 | 8.50759 | 1580 ft | 14 kts | 291° |
| 2026-04-29 05:57 | 12.04063 | 8.50734 | 1580 ft | 0 kts | 326° |
| 2026-04-29 05:57 | 12.04069 | 8.50731 | 1580 ft | 1 kts | 326° |
| 2026-04-29 05:58 | 12.04086 | 8.50721 | 1580 ft | 4 kts | 331° |
| 2026-04-29 05:58 | 12.04126 | 8.50701 | 1581 ft | 8 kts | 335° |
| 2026-04-29 05:58 | 12.04172 | 8.50704 | 1581 ft | 8 kts | 31° |
| 2026-04-29 05:58 | 12.04228 | 8.50793 | 1579 ft | 25 kts | 60° |
| 2026-04-29 05:59 | 12.04411 | 8.51129 | 1571 ft | 86 kts | 61° |
| 2026-04-29 05:59 | 12.04803 | 8.51849 | 1554 ft | 144 kts | 61° |
| 2026-04-29 05:59 | 12.05359 | 8.52887 | 1714 ft | 181 kts | 62° |
| 2026-04-29 05:59 | 12.05978 | 8.54084 | 2174 ft | 199 kts | 62° |
| 2026-04-29 06:00 | 12.06665 | 8.55366 | 2761 ft | 214 kts | 61° |
| 2026-04-29 06:00 | 12.07409 | 8.56719 | 3397 ft | 224 kts | 61° |
| 2026-04-29 06:00 | 12.08200 | 8.58158 | 3645 ft | 243 kts | 61° |
| 2026-04-29 06:00 | 12.09178 | 8.59656 | 3859 ft | 263 kts | 52° |
| 2026-04-29 06:01 | 12.10382 | 8.61108 | 4297 ft | 269 kts | 49° |
| 2026-04-29 06:01 | 12.11647 | 8.62514 | 4943 ft | 267 kts | 49° |
| 2026-04-29 06:01 | 12.12922 | 8.63860 | 5697 ft | 260 kts | 49° |
| 2026-04-29 06:01 | 12.14183 | 8.65156 | 6432 ft | 254 kts | 49° |
| 2026-04-29 06:02 | 12.15436 | 8.66437 | 6967 ft | 257 kts | 48° |
| 2026-04-29 06:02 | 12.16714 | 8.67748 | 7403 ft | 263 kts | 48° |
| 2026-04-29 06:02 | 12.18014 | 8.69087 | 7918 ft | 267 kts | 47° |
| 2026-04-29 06:02 | 12.19327 | 8.70443 | 8424 ft | 271 kts | 47° |
| 2026-04-29 06:03 | 12.20659 | 8.71822 | 8962 ft | 274 kts | 47° |
| 2026-04-29 06:03 | 12.21987 | 8.73199 | 9541 ft | 276 kts | 46° |
| 2026-04-29 06:03 | 12.23346 | 8.74608 | 10035 ft | 282 kts | 46° |
| 2026-04-29 06:03 | 12.24757 | 8.76074 | 10249 ft | 297 kts | 46° |
| 2026-04-29 06:04 | 12.26242 | 8.77616 | 10431 ft | 312 kts | 46° |
| 2026-04-29 06:04 | 12.27798 | 8.79234 | 10586 ft | 327 kts | 46° |
| 2026-04-29 06:04 | 12.29422 | 8.80920 | 10836 ft | 337 kts | 46° |
| 2026-04-29 06:04 | 12.31077 | 8.82639 | 11284 ft | 340 kts | 46° |
| 2026-04-29 06:05 | 12.32746 | 8.84371 | 11771 ft | 343 kts | 46° |
| 2026-04-29 06:05 | 12.34427 | 8.86116 | 12264 ft | 346 kts | 46° |
| 2026-04-29 06:05 | 12.36120 | 8.87873 | 12763 ft | 348 kts | 46° |
| 2026-04-29 06:05 | 12.37826 | 8.89646 | 13265 ft | 351 kts | 46° |
| 2026-04-29 06:06 | 12.39548 | 8.91436 | 13754 ft | 354 kts | 46° |
| 2026-04-29 06:06 | 12.41282 | 8.93238 | 14207 ft | 356 kts | 46° |
| 2026-04-29 06:06 | 12.43028 | 8.95055 | 14661 ft | 358 kts | 46° |
| 2026-04-29 06:06 | 12.44782 | 8.96878 | 15106 ft | 360 kts | 46° |
| 2026-04-29 06:07 | 12.46549 | 8.98716 | 15545 ft | 363 kts | 47° |
| 2026-04-29 06:07 | 12.48301 | 9.00539 | 15962 ft | 365 kts | 47° |
| 2026-04-29 06:07 | 12.50088 | 9.02400 | 16381 ft | 367 kts | 47° |
| 2026-04-29 06:07 | 12.51883 | 9.04269 | 16800 ft | 369 kts | 47° |
| 2026-04-29 06:08 | 12.53690 | 9.06150 | 17220 ft | 372 kts | 47° |
| 2026-04-29 06:08 | 12.55508 | 9.08044 | 17612 ft | 374 kts | 47° |
| 2026-04-29 06:08 | 12.57339 | 9.09951 | 17982 ft | 377 kts | 48° |
| 2026-04-29 06:08 | 12.59186 | 9.11876 | 18302 ft | 380 kts | 48° |
| 2026-04-29 06:09 | 12.61042 | 9.13811 | 18599 ft | 383 kts | 48° |
| 2026-04-29 06:09 | 12.62912 | 9.15761 | 18935 ft | 384 kts | 47° |
| 2026-04-29 06:09 | 12.64791 | 9.17719 | 19253 ft | 386 kts | 47° |
| 2026-04-29 06:09 | 12.66677 | 9.19685 | 19544 ft | 389 kts | 47° |
| 2026-04-29 06:10 | 12.68580 | 9.21670 | 19832 ft | 391 kts | 47° |
| 2026-04-29 06:10 | 12.70499 | 9.23664 | 20112 ft | 394 kts | 46° |
| 2026-04-29 06:10 | 12.72493 | 9.25607 | 20403 ft | 397 kts | 44° |
| 2026-04-29 06:10 | 12.74529 | 9.27478 | 20680 ft | 399 kts | 43° |
| 2026-04-29 06:11 | 12.76633 | 9.29356 | 20963 ft | 402 kts | 42° |
| 2026-04-29 06:11 | 12.78754 | 9.31234 | 21238 ft | 404 kts | 42° |
| 2026-04-29 06:11 | 12.80892 | 9.33130 | 21505 ft | 407 kts | 42° |
| 2026-04-29 06:11 | 12.82960 | 9.35120 | 21780 ft | 408 kts | 47° |
| 2026-04-29 06:12 | 12.84922 | 9.37233 | 22051 ft | 410 kts | 49° |
| 2026-04-29 06:12 | 12.86856 | 9.39397 | 22315 ft | 412 kts | 49° |
| 2026-04-29 06:12 | 12.88779 | 9.41602 | 22582 ft | 415 kts | 50° |
| 2026-04-29 06:12 | 12.90693 | 9.43821 | 22845 ft | 417 kts | 50° |
| 2026-04-29 06:13 | 12.92614 | 9.46056 | 23104 ft | 419 kts | 50° |
| 2026-04-29 06:13 | 12.94541 | 9.48298 | 23456 ft | 418 kts | 50° |
| 2026-04-29 06:13 | 12.96445 | 9.50508 | 23698 ft | 419 kts | 50° |
| 2026-04-29 06:13 | 12.98387 | 9.52760 | 23842 ft | 423 kts | 50° |
| 2026-04-29 06:14 | 13.00346 | 9.55027 | 24054 ft | 425 kts | 50° |
| 2026-04-29 06:14 | 13.02309 | 9.57298 | 24280 ft | 427 kts | 49° |
| 2026-04-29 06:14 | 13.04281 | 9.59579 | 24489 ft | 428 kts | 50° |
| 2026-04-29 06:14 | 13.06260 | 9.61868 | 24701 ft | 430 kts | 50° |
| 2026-04-29 06:15 | 13.08247 | 9.64167 | 24914 ft | 432 kts | 50° |
| 2026-04-29 06:15 | 13.10243 | 9.66478 | 25101 ft | 433 kts | 49° |
| 2026-04-29 06:15 | 13.12250 | 9.68801 | 25319 ft | 435 kts | 50° |
| 2026-04-29 06:15 | 13.14263 | 9.71133 | 25531 ft | 437 kts | 49° |
| 2026-04-29 06:16 | 13.16282 | 9.73472 | 25729 ft | 438 kts | 49° |
| 2026-04-29 06:16 | 13.18306 | 9.75817 | 25937 ft | 440 kts | 49° |
| 2026-04-29 06:16 | 13.20343 | 9.78178 | 26142 ft | 442 kts | 49° |
| 2026-04-29 06:16 | 13.22380 | 9.80540 | 26330 ft | 444 kts | 49° |
| 2026-04-29 06:17 | 13.24429 | 9.82917 | 26540 ft | 445 kts | 49° |
| 2026-04-29 06:17 | 13.26487 | 9.85305 | 26739 ft | 447 kts | 49° |
| 2026-04-29 06:17 | 13.28546 | 9.87694 | 26971 ft | 448 kts | 49° |
| 2026-04-29 06:17 | 13.30592 | 9.90069 | 27164 ft | 450 kts | 49° |
| 2026-04-29 06:18 | 13.32672 | 9.92485 | 27324 ft | 453 kts | 49° |
| 2026-04-29 06:18 | 13.34764 | 9.94913 | 27524 ft | 454 kts | 49° |
| 2026-04-29 06:18 | 13.36860 | 9.97349 | 27716 ft | 456 kts | 49° |
| 2026-04-29 06:18 | 13.38965 | 9.99794 | 27932 ft | 458 kts | 49° |
| 2026-04-29 06:19 | 13.41077 | 10.02250 | 28126 ft | 460 kts | 48° |
| 2026-04-29 06:19 | 13.43198 | 10.04717 | 28357 ft | 460 kts | 48° |
| 2026-04-29 06:19 | 13.45324 | 10.07189 | 28548 ft | 462 kts | 48° |
| 2026-04-29 06:19 | 13.47456 | 10.09669 | 28762 ft | 464 kts | 48° |
| 2026-04-29 06:20 | 13.49612 | 10.12140 | 28937 ft | 466 kts | 47° |
| 2026-04-29 06:20 | 13.51796 | 10.14607 | 29151 ft | 467 kts | 47° |
| 2026-04-29 06:20 | 13.53995 | 10.17070 | 29327 ft | 468 kts | 47° |
| 2026-04-29 06:20 | 13.56204 | 10.19541 | 29514 ft | 470 kts | 47° |
| 2026-04-29 06:21 | 13.58418 | 10.22018 | 29716 ft | 471 kts | 47° |
| 2026-04-29 06:21 | 13.60641 | 10.24510 | 29874 ft | 473 kts | 47° |
| 2026-04-29 06:21 | 13.62839 | 10.26977 | 30029 ft | 474 kts | 47° |
| 2026-04-29 06:21 | 13.65068 | 10.29483 | 30185 ft | 475 kts | 47° |
| 2026-04-29 06:22 | 13.67303 | 10.31998 | 30346 ft | 476 kts | 47° |
| 2026-04-29 06:22 | 13.69541 | 10.34518 | 30499 ft | 477 kts | 47° |
| 2026-04-29 06:22 | 13.71785 | 10.37045 | 30660 ft | 478 kts | 47° |
| 2026-04-29 06:22 | 13.74030 | 10.39575 | 30814 ft | 479 kts | 47° |
| 2026-04-29 06:23 | 13.76280 | 10.42110 | 30970 ft | 480 kts | 47° |
| 2026-04-29 06:23 | 13.78540 | 10.44658 | 31132 ft | 481 kts | 47° |
| 2026-04-29 06:23 | 13.80776 | 10.47179 | 31296 ft | 482 kts | 47° |
| 2026-04-29 06:23 | 13.83042 | 10.49735 | 31477 ft | 484 kts | 47° |
| 2026-04-29 06:24 | 13.85318 | 10.52303 | 31689 ft | 485 kts | 47° |
| 2026-04-29 06:24 | 13.87594 | 10.54871 | 31885 ft | 486 kts | 47° |
| 2026-04-29 06:24 | 13.89877 | 10.57448 | 32191 ft | 486 kts | 47° |
| 2026-04-29 06:24 | 13.92154 | 10.60019 | 32550 ft | 484 kts | 47° |
| 2026-04-29 06:25 | 13.94420 | 10.62580 | 32918 ft | 483 kts | 46° |
| 2026-04-29 06:25 | 13.96656 | 10.65107 | 33323 ft | 481 kts | 47° |
| 2026-04-29 06:25 | 13.98903 | 10.67647 | 33691 ft | 480 kts | 47° |
| 2026-04-29 06:25 | 14.01156 | 10.70194 | 33971 ft | 481 kts | 47° |
| 2026-04-29 06:26 | 14.03410 | 10.72744 | 34262 ft | 481 kts | 47° |
| 2026-04-29 06:26 | 14.05663 | 10.75292 | 34544 ft | 481 kts | 47° |
| 2026-04-29 06:26 | 14.07911 | 10.77837 | 34854 ft | 480 kts | 47° |
| 2026-04-29 06:26 | 14.10158 | 10.80381 | 35160 ft | 480 kts | 47° |
| 2026-04-29 06:27 | 14.12408 | 10.82929 | 35474 ft | 479 kts | 47° |
| 2026-04-29 06:27 | 14.14650 | 10.85470 | 35762 ft | 479 kts | 47° |
| 2026-04-29 06:27 | 14.16895 | 10.88013 | 36041 ft | 479 kts | 47° |
| 2026-04-29 06:27 | 14.19136 | 10.90554 | 36319 ft | 479 kts | 47° |
| 2026-04-29 06:28 | 14.21377 | 10.93095 | 36596 ft | 479 kts | 47° |
| 2026-04-29 06:28 | 14.23619 | 10.95638 | 36868 ft | 479 kts | 47° |
| 2026-04-29 06:28 | 14.25828 | 10.98144 | 37145 ft | 478 kts | 47° |
| 2026-04-29 06:28 | 14.28064 | 11.00683 | 37415 ft | 478 kts | 47° |
| 2026-04-29 06:29 | 14.30299 | 11.03220 | 37673 ft | 478 kts | 47° |
| 2026-04-29 06:29 | 14.32531 | 11.05755 | 37942 ft | 477 kts | 47° |
| 2026-04-29 06:29 | 14.34762 | 11.08290 | 38189 ft | 477 kts | 47° |
| 2026-04-29 06:29 | 14.36991 | 11.10823 | 38439 ft | 477 kts | 47° |
| 2026-04-29 06:30 | 14.39221 | 11.13358 | 38676 ft | 476 kts | 47° |
| 2026-04-29 06:30 | 14.43671 | 11.18420 | 38856 ft | 474 kts | 47° |
| 2026-04-29 06:31 | 14.48090 | 11.23449 | 38855 ft | 471 kts | 47° |
| 2026-04-29 06:31 | 14.52496 | 11.28467 | 38853 ft | 471 kts | 47° |
| 2026-04-29 06:32 | 14.56152 | 11.32633 | 38849 ft | 471 kts | 47° |
| 2026-04-29 06:32 | 14.61263 | 11.38462 | 38854 ft | 470 kts | 47° |
| 2026-04-29 06:33 | 14.64938 | 11.42654 | 38856 ft | 470 kts | 47° |
| 2026-04-29 06:33 | 14.69328 | 11.47665 | 38856 ft | 471 kts | 47° |
| 2026-04-29 06:34 | 14.73697 | 11.52658 | 38854 ft | 471 kts | 47° |
| 2026-04-29 06:34 | 14.78101 | 11.57696 | 38856 ft | 471 kts | 47° |
| 2026-04-29 06:35 | 14.82500 | 11.62730 | 38856 ft | 471 kts | 47° |
| 2026-04-29 06:35 | 14.86894 | 11.67763 | 38856 ft | 471 kts | 47° |
| 2026-04-29 06:36 | 14.91284 | 11.72795 | 38856 ft | 470 kts | 47° |
| 2026-04-29 06:36 | 14.95638 | 11.77787 | 38862 ft | 470 kts | 47° |
| 2026-04-29 06:37 | 15.00017 | 11.82812 | 38862 ft | 470 kts | 47° |
| 2026-04-29 06:37 | 15.04402 | 11.87847 | 38862 ft | 471 kts | 47° |
| 2026-04-29 06:38 | 15.08795 | 11.92894 | 38862 ft | 471 kts | 47° |
| 2026-04-29 06:38 | 15.13185 | 11.97942 | 38865 ft | 471 kts | 47° |
| 2026-04-29 06:39 | 15.17569 | 12.02987 | 38867 ft | 471 kts | 47° |
| 2026-04-29 06:39 | 15.21952 | 12.08034 | 38867 ft | 471 kts | 46° |
| 2026-04-29 06:40 | 15.26328 | 12.13075 | 38868 ft | 470 kts | 46° |
| 2026-04-29 06:40 | 15.30704 | 12.18119 | 38870 ft | 470 kts | 46° |
| 2026-04-29 06:41 | 15.35054 | 12.23135 | 38870 ft | 471 kts | 46° |
| 2026-04-29 06:41 | 15.39442 | 12.28200 | 38870 ft | 472 kts | 46° |
| 2026-04-29 06:42 | 15.43825 | 12.33261 | 38873 ft | 472 kts | 46° |
| 2026-04-29 06:42 | 15.48209 | 12.38327 | 38873 ft | 472 kts | 46° |
| 2026-04-29 06:43 | 15.52590 | 12.43393 | 38873 ft | 472 kts | 46° |
| 2026-04-29 06:43 | 15.56969 | 12.48461 | 38878 ft | 472 kts | 46° |
| 2026-04-29 06:44 | 15.61322 | 12.53502 | 38878 ft | 472 kts | 46° |
| 2026-04-29 06:44 | 15.65701 | 12.58577 | 38879 ft | 472 kts | 46° |
| 2026-04-29 06:45 | 15.70097 | 12.63673 | 38881 ft | 474 kts | 46° |
| 2026-04-29 06:45 | 15.74490 | 12.68771 | 38881 ft | 474 kts | 46° |
| 2026-04-29 06:46 | 15.78886 | 12.73876 | 38879 ft | 474 kts | 46° |
| 2026-04-29 06:46 | 15.83278 | 12.78980 | 38887 ft | 474 kts | 46° |
| 2026-04-29 06:47 | 15.87662 | 12.84079 | 38886 ft | 473 kts | 46° |
| 2026-04-29 06:47 | 15.92014 | 12.89143 | 38886 ft | 473 kts | 46° |
| 2026-04-29 06:48 | 15.96397 | 12.94247 | 38894 ft | 473 kts | 46° |
| 2026-04-29 06:48 | 16.00783 | 12.99358 | 38891 ft | 474 kts | 46° |
| 2026-04-29 06:49 | 16.05170 | 13.04475 | 38892 ft | 474 kts | 46° |
| 2026-04-29 06:49 | 16.09559 | 13.09598 | 38897 ft | 474 kts | 46° |
| 2026-04-29 06:50 | 16.13944 | 13.14721 | 38897 ft | 474 kts | 46° |
| 2026-04-29 06:50 | 16.18299 | 13.19812 | 38897 ft | 473 kts | 46° |
| 2026-04-29 06:51 | 16.22677 | 13.24934 | 38898 ft | 473 kts | 46° |
| 2026-04-29 06:51 | 16.27059 | 13.30064 | 38898 ft | 473 kts | 46° |
| 2026-04-29 06:52 | 16.31435 | 13.35189 | 38896 ft | 474 kts | 46° |
| 2026-04-29 06:52 | 16.35814 | 13.40323 | 38904 ft | 474 kts | 46° |
| 2026-04-29 06:53 | 16.40195 | 13.45463 | 38905 ft | 474 kts | 46° |
| 2026-04-29 06:53 | 16.44573 | 13.50603 | 38903 ft | 474 kts | 46° |
| 2026-04-29 06:54 | 16.48944 | 13.55739 | 38908 ft | 474 kts | 46° |
| 2026-04-29 06:54 | 16.53287 | 13.60846 | 38908 ft | 474 kts | 46° |
| 2026-04-29 06:55 | 16.57663 | 13.65995 | 38907 ft | 474 kts | 46° |
| 2026-04-29 06:55 | 16.62043 | 13.71152 | 38912 ft | 474 kts | 46° |
| 2026-04-29 06:56 | 16.66416 | 13.76304 | 38910 ft | 474 kts | 46° |
| 2026-04-29 06:56 | 16.70766 | 13.81433 | 38911 ft | 474 kts | 46° |
| 2026-04-29 06:57 | 16.75140 | 13.86595 | 38918 ft | 474 kts | 46° |
| 2026-04-29 06:57 | 16.79519 | 13.91766 | 38917 ft | 474 kts | 46° |
| 2026-04-29 06:58 | 16.83855 | 13.96891 | 38915 ft | 474 kts | 46° |
| 2026-04-29 06:58 | 16.88217 | 14.02050 | 38920 ft | 474 kts | 46° |
| 2026-04-29 06:59 | 16.92587 | 14.07222 | 38921 ft | 474 kts | 46° |
| 2026-04-29 06:59 | 16.96956 | 14.12397 | 38919 ft | 475 kts | 46° |
| 2026-04-29 07:00 | 17.01332 | 14.17584 | 38926 ft | 475 kts | 46° |
| 2026-04-29 07:00 | 17.05704 | 14.22770 | 38926 ft | 475 kts | 46° |
| 2026-04-29 07:01 | 17.10045 | 14.27925 | 38929 ft | 475 kts | 46° |
| 2026-04-29 07:01 | 17.14410 | 14.33112 | 38927 ft | 475 kts | 46° |
| 2026-04-29 07:02 | 17.18771 | 14.38297 | 38925 ft | 475 kts | 46° |
| 2026-04-29 07:02 | 17.23136 | 14.43492 | 38936 ft | 475 kts | 46° |
| 2026-04-29 07:03 | 17.27510 | 14.48700 | 38930 ft | 477 kts | 46° |
| 2026-04-29 07:03 | 17.31889 | 14.53918 | 38930 ft | 477 kts | 46° |
| 2026-04-29 07:04 | 17.36267 | 14.59136 | 38935 ft | 477 kts | 46° |
| 2026-04-29 07:04 | 17.40646 | 14.64359 | 38933 ft | 477 kts | 46° |
| 2026-04-29 07:05 | 17.45021 | 14.69579 | 38933 ft | 477 kts | 46° |
| 2026-04-29 07:05 | 17.49367 | 14.74771 | 38936 ft | 477 kts | 46° |
| 2026-04-29 07:06 | 17.53741 | 14.79999 | 38937 ft | 477 kts | 46° |
| 2026-04-29 07:06 | 17.58116 | 14.85234 | 38939 ft | 477 kts | 46° |
| 2026-04-29 07:07 | 17.62486 | 14.90472 | 38938 ft | 477 kts | 46° |
| 2026-04-29 07:07 | 17.66854 | 14.95714 | 38935 ft | 477 kts | 46° |
| 2026-04-29 07:08 | 17.71220 | 15.00957 | 38938 ft | 477 kts | 46° |
| 2026-04-29 07:08 | 17.75560 | 15.06173 | 38938 ft | 477 kts | 46° |
| 2026-04-29 07:09 | 17.79920 | 15.11416 | 38936 ft | 477 kts | 46° |
| 2026-04-29 07:09 | 17.84278 | 15.16662 | 38940 ft | 477 kts | 46° |
| 2026-04-29 07:10 | 17.88653 | 15.21932 | 38937 ft | 479 kts | 46° |
| 2026-04-29 07:10 | 17.93030 | 15.27209 | 38939 ft | 479 kts | 46° |
| 2026-04-29 07:11 | 17.97409 | 15.32492 | 38940 ft | 479 kts | 46° |
| 2026-04-29 07:11 | 18.01749 | 15.37734 | 38934 ft | 478 kts | 46° |
| 2026-04-29 07:12 | 18.06116 | 15.43012 | 38936 ft | 478 kts | 46° |
| 2026-04-29 07:12 | 18.10485 | 15.48296 | 38939 ft | 478 kts | 46° |
| 2026-04-29 07:13 | 18.14853 | 15.53585 | 38938 ft | 478 kts | 46° |
| 2026-04-29 07:13 | 18.19221 | 15.58876 | 38938 ft | 480 kts | 46° |
| 2026-04-29 07:14 | 18.23601 | 15.64187 | 38939 ft | 480 kts | 46° |
| 2026-04-29 07:14 | 18.27945 | 15.69460 | 38941 ft | 480 kts | 46° |
| 2026-04-29 07:15 | 18.32317 | 15.74770 | 38937 ft | 479 kts | 46° |
| 2026-04-29 07:15 | 18.36684 | 15.80078 | 38939 ft | 479 kts | 46° |
| 2026-04-29 07:16 | 18.41049 | 15.85389 | 38937 ft | 479 kts | 46° |
| 2026-04-29 07:16 | 18.45415 | 15.90706 | 38947 ft | 480 kts | 46° |
| 2026-04-29 07:17 | 18.49762 | 15.96003 | 38940 ft | 481 kts | 46° |
| 2026-04-29 07:17 | 18.54134 | 16.01336 | 38940 ft | 481 kts | 46° |
| 2026-04-29 07:18 | 18.58509 | 16.06678 | 38943 ft | 481 kts | 46° |
| 2026-04-29 07:18 | 18.62882 | 16.12021 | 38943 ft | 480 kts | 46° |
| 2026-04-29 07:19 | 18.67245 | 16.17357 | 38941 ft | 480 kts | 46° |
| 2026-04-29 07:19 | 18.71608 | 16.22696 | 38949 ft | 480 kts | 46° |
| 2026-04-29 07:20 | 18.75975 | 16.28047 | 38950 ft | 481 kts | 46° |
| 2026-04-29 07:20 | 18.80319 | 16.33372 | 38950 ft | 482 kts | 46° |
| 2026-04-29 07:21 | 18.84703 | 16.38752 | 38953 ft | 483 kts | 46° |
| 2026-04-29 07:21 | 18.89082 | 16.44131 | 38952 ft | 483 kts | 46° |
| 2026-04-29 07:22 | 18.93463 | 16.49517 | 38954 ft | 483 kts | 46° |
| 2026-04-29 07:22 | 18.97840 | 16.54903 | 38956 ft | 483 kts | 46° |
| 2026-04-29 07:23 | 19.01481 | 16.59385 | 38956 ft | 483 kts | 46° |
| 2026-04-29 07:23 | 19.06569 | 16.65657 | 38962 ft | 484 kts | 46° |
| 2026-04-29 07:24 | 19.10218 | 16.70158 | 38952 ft | 485 kts | 46° |
| 2026-04-29 07:24 | 19.14602 | 16.75570 | 38960 ft | 484 kts | 46° |
| 2026-04-29 07:25 | 19.18981 | 16.80981 | 38963 ft | 484 kts | 46° |
| 2026-04-29 07:25 | 19.23357 | 16.86395 | 38964 ft | 484 kts | 46° |
| 2026-04-29 07:26 | 19.27731 | 16.91809 | 38969 ft | 484 kts | 46° |
| 2026-04-29 07:26 | 19.32101 | 16.97223 | 38969 ft | 484 kts | 46° |
| 2026-04-29 07:27 | 19.36474 | 17.02646 | 38967 ft | 485 kts | 46° |
| 2026-04-29 07:27 | 19.40855 | 17.08084 | 38978 ft | 485 kts | 46° |
| 2026-04-29 07:28 | 19.45227 | 17.13515 | 38975 ft | 484 kts | 46° |
| 2026-04-29 07:28 | 19.49599 | 17.18953 | 38977 ft | 484 kts | 46° |
| 2026-04-29 07:29 | 19.53970 | 17.24393 | 38984 ft | 484 kts | 46° |
| 2026-04-29 07:29 | 19.58334 | 17.29830 | 38984 ft | 484 kts | 46° |
| 2026-04-29 07:30 | 19.62669 | 17.35234 | 38994 ft | 484 kts | 46° |
| 2026-04-29 07:30 | 19.67041 | 17.40690 | 38993 ft | 486 kts | 46° |
| 2026-04-29 07:31 | 19.73607 | 17.48895 | 38999 ft | 486 kts | 46° |
| 2026-04-29 07:31 | 19.77979 | 17.54366 | 39000 ft | 485 kts | 46° |
| 2026-04-29 07:32 | 19.82318 | 17.59798 | 38998 ft | 485 kts | 46° |
| 2026-04-29 07:32 | 19.86688 | 17.65275 | 38996 ft | 485 kts | 46° |
| 2026-04-29 07:33 | 19.91056 | 17.70755 | 39006 ft | 485 kts | 46° |
| 2026-04-29 07:33 | 19.95431 | 17.76247 | 38997 ft | 487 kts | 46° |
| 2026-04-29 07:34 | 19.99816 | 17.81755 | 39001 ft | 487 kts | 46° |
| 2026-04-29 07:34 | 20.04165 | 17.87227 | 39002 ft | 487 kts | 46° |
| 2026-04-29 07:35 | 20.08547 | 17.92747 | 39005 ft | 487 kts | 46° |
| 2026-04-29 07:35 | 20.12919 | 17.98257 | 39004 ft | 487 kts | 46° |
| 2026-04-29 07:36 | 20.17262 | 18.03736 | 39026 ft | 487 kts | 46° |
| 2026-04-29 07:36 | 20.21630 | 18.09252 | 39035 ft | 488 kts | 46° |
| 2026-04-29 07:37 | 20.26017 | 18.14797 | 39035 ft | 490 kts | 46° |
| 2026-04-29 07:37 | 20.30404 | 18.20348 | 39071 ft | 490 kts | 46° |
| 2026-04-29 07:38 | 20.34794 | 18.25908 | 39075 ft | 490 kts | 46° |
| 2026-04-29 07:38 | 20.39188 | 18.31479 | 39069 ft | 490 kts | 46° |
| 2026-04-29 07:39 | 20.43576 | 18.37047 | 39076 ft | 490 kts | 46° |
| 2026-04-29 07:39 | 20.47962 | 18.42618 | 39086 ft | 490 kts | 46° |
| 2026-04-29 07:40 | 20.52318 | 18.48156 | 39101 ft | 489 kts | 46° |
| 2026-04-29 07:40 | 20.56692 | 18.53723 | 39099 ft | 489 kts | 46° |
| 2026-04-29 07:41 | 20.61066 | 18.59297 | 39103 ft | 489 kts | 46° |
| 2026-04-29 07:41 | 20.65437 | 18.64870 | 39105 ft | 489 kts | 46° |
| 2026-04-29 07:42 | 20.69804 | 18.70445 | 39105 ft | 489 kts | 46° |
| 2026-04-29 07:42 | 20.74141 | 18.75987 | 39111 ft | 489 kts | 46° |
| 2026-04-29 07:43 | 20.78507 | 18.81575 | 39106 ft | 491 kts | 46° |
| 2026-04-29 07:43 | 20.82886 | 18.87187 | 39087 ft | 491 kts | 46° |
| 2026-04-29 07:44 | 20.87262 | 18.92792 | 39090 ft | 491 kts | 46° |
| 2026-04-29 07:44 | 20.91647 | 18.98414 | 39083 ft | 491 kts | 46° |
| 2026-04-29 07:45 | 20.96025 | 19.04033 | 39081 ft | 491 kts | 46° |
| 2026-04-29 07:45 | 21.00375 | 19.09622 | 39087 ft | 492 kts | 46° |
| 2026-04-29 07:46 | 21.04760 | 19.15265 | 39075 ft | 493 kts | 46° |
| 2026-04-29 07:46 | 21.09150 | 19.20918 | 39070 ft | 494 kts | 46° |
| 2026-04-29 07:47 | 21.13552 | 19.26594 | 39064 ft | 494 kts | 46° |
| 2026-04-29 07:47 | 21.17946 | 19.32265 | 39065 ft | 494 kts | 46° |
| 2026-04-29 07:48 | 21.22310 | 19.37904 | 39063 ft | 494 kts | 46° |
| 2026-04-29 07:48 | 21.26704 | 19.43586 | 39059 ft | 494 kts | 46° |
| 2026-04-29 07:49 | 21.31094 | 19.49270 | 39064 ft | 495 kts | 45° |
| 2026-04-29 07:49 | 21.35494 | 19.54970 | 39051 ft | 496 kts | 46° |
| 2026-04-29 07:50 | 21.39874 | 19.60652 | 39051 ft | 497 kts | 46° |
| 2026-04-29 07:50 | 21.44281 | 19.66377 | 39043 ft | 497 kts | 46° |
| 2026-04-29 07:51 | 21.48681 | 19.72098 | 39045 ft | 497 kts | 46° |
| 2026-04-29 07:51 | 21.53081 | 19.77823 | 39048 ft | 497 kts | 46° |
| 2026-04-29 07:52 | 21.57455 | 19.83522 | 39050 ft | 497 kts | 45° |
| 2026-04-29 07:52 | 21.61861 | 19.89266 | 39034 ft | 499 kts | 45° |
| 2026-04-29 07:53 | 21.66279 | 19.95030 | 39044 ft | 499 kts | 45° |
| 2026-04-29 07:53 | 21.70696 | 20.00800 | 39031 ft | 499 kts | 45° |
| 2026-04-29 07:54 | 21.75107 | 20.06567 | 39046 ft | 499 kts | 45° |
| 2026-04-29 07:54 | 21.79518 | 20.12341 | 39027 ft | 499 kts | 45° |
| 2026-04-29 07:55 | 21.83928 | 20.18120 | 39032 ft | 499 kts | 45° |
| 2026-04-29 07:55 | 21.88344 | 20.23913 | 39034 ft | 501 kts | 45° |
| 2026-04-29 07:56 | 21.92769 | 20.29723 | 39035 ft | 501 kts | 45° |
| 2026-04-29 07:56 | 21.97163 | 20.35500 | 39032 ft | 501 kts | 45° |
| 2026-04-29 07:57 | 22.01586 | 20.41321 | 39034 ft | 501 kts | 45° |
| 2026-04-29 07:57 | 22.06004 | 20.47142 | 39034 ft | 501 kts | 45° |
| 2026-04-29 07:58 | 22.10420 | 20.52967 | 39044 ft | 502 kts | 45° |
| 2026-04-29 07:58 | 22.14841 | 20.58803 | 39035 ft | 504 kts | 45° |
| 2026-04-29 07:59 | 22.19280 | 20.64669 | 39034 ft | 504 kts | 45° |
| 2026-04-29 07:59 | 22.23711 | 20.70534 | 39034 ft | 504 kts | 45° |
| 2026-04-29 08:00 | 22.28147 | 20.76411 | 39040 ft | 504 kts | 45° |
| 2026-04-29 08:00 | 22.32545 | 20.82244 | 39039 ft | 504 kts | 45° |
| 2026-04-29 08:01 | 22.36975 | 20.88125 | 39050 ft | 504 kts | 45° |
| 2026-04-29 08:01 | 22.41411 | 20.94020 | 39039 ft | 506 kts | 45° |
| 2026-04-29 08:02 | 22.45853 | 20.99931 | 39042 ft | 507 kts | 45° |
| 2026-04-29 08:02 | 22.50302 | 21.05857 | 39045 ft | 507 kts | 45° |
| 2026-04-29 08:03 | 22.54741 | 21.11779 | 39045 ft | 507 kts | 45° |
| 2026-04-29 08:03 | 22.59150 | 21.17665 | 39043 ft | 506 kts | 45° |
| 2026-04-29 08:04 | 22.63585 | 21.23595 | 39051 ft | 507 kts | 45° |
| 2026-04-29 08:04 | 22.68028 | 21.29538 | 39039 ft | 508 kts | 45° |
| 2026-04-29 08:05 | 22.72473 | 21.35494 | 39041 ft | 508 kts | 45° |
| 2026-04-29 08:05 | 22.76920 | 21.41459 | 39043 ft | 508 kts | 45° |
| 2026-04-29 08:06 | 22.81360 | 21.47422 | 39041 ft | 508 kts | 45° |
| 2026-04-29 08:06 | 22.85772 | 21.53352 | 39039 ft | 508 kts | 45° |
| 2026-04-29 08:07 | 22.90213 | 21.59330 | 39042 ft | 509 kts | 45° |
| 2026-04-29 08:07 | 22.94659 | 21.65320 | 39042 ft | 509 kts | 45° |
| 2026-04-29 08:08 | 22.99099 | 21.71310 | 39044 ft | 509 kts | 45° |
| 2026-04-29 08:08 | 23.03540 | 21.77308 | 39045 ft | 509 kts | 45° |
| 2026-04-29 08:09 | 23.07977 | 21.83308 | 39038 ft | 509 kts | 45° |
| 2026-04-29 08:09 | 23.12412 | 21.89311 | 39054 ft | 510 kts | 45° |
| 2026-04-29 08:10 | 23.16845 | 21.95320 | 39043 ft | 510 kts | 45° |
| 2026-04-29 08:10 | 23.21250 | 22.01298 | 39060 ft | 510 kts | 45° |
| 2026-04-29 08:11 | 23.25681 | 22.07317 | 39046 ft | 510 kts | 45° |
| 2026-04-29 08:11 | 23.30116 | 22.13350 | 39060 ft | 510 kts | 45° |
| 2026-04-29 08:12 | 23.34549 | 22.19387 | 39046 ft | 510 kts | 45° |
| 2026-04-29 08:12 | 23.38963 | 22.25404 | 39054 ft | 511 kts | 45° |
| 2026-04-29 08:13 | 23.43400 | 22.31461 | 39047 ft | 511 kts | 45° |
| 2026-04-29 08:13 | 23.47825 | 22.37509 | 39049 ft | 511 kts | 45° |
| 2026-04-29 08:14 | 23.51507 | 22.42547 | 39052 ft | 511 kts | 45° |
| 2026-04-29 08:14 | 23.55933 | 22.48608 | 39048 ft | 511 kts | 45° |
| 2026-04-29 08:15 | 23.60359 | 22.54677 | 39046 ft | 512 kts | 45° |
| 2026-04-29 08:15 | 23.64793 | 22.60764 | 39047 ft | 512 kts | 45° |
| 2026-04-29 08:16 | 23.69224 | 22.66856 | 39050 ft | 512 kts | 45° |
| 2026-04-29 08:16 | 23.73626 | 22.72914 | 39047 ft | 513 kts | 45° |
| 2026-04-29 08:17 | 23.78058 | 22.79022 | 39055 ft | 513 kts | 45° |
| 2026-04-29 08:17 | 23.82490 | 22.85137 | 39053 ft | 513 kts | 45° |
| 2026-04-29 08:18 | 23.86923 | 22.91261 | 39064 ft | 514 kts | 45° |
| 2026-04-29 08:18 | 23.91361 | 22.97399 | 39054 ft | 514 kts | 45° |
| 2026-04-29 08:19 | 23.95774 | 23.03510 | 39053 ft | 514 kts | 45° |
| 2026-04-29 08:19 | 24.00207 | 23.09656 | 39054 ft | 514 kts | 45° |
| 2026-04-29 08:20 | 24.04637 | 23.15806 | 39053 ft | 515 kts | 45° |
| 2026-04-29 08:20 | 24.09069 | 23.21966 | 39057 ft | 515 kts | 45° |
| 2026-04-29 08:21 | 24.13543 | 23.28079 | 39051 ft | 510 kts | 39° |
| 2026-04-29 08:21 | 24.16111 | 23.30688 | 39053 ft | 497 kts | 28° |
| 2026-04-29 08:21 | 24.18950 | 23.32761 | 39053 ft | 488 kts | 22° |
| 2026-04-29 08:22 | 24.24843 | 23.36403 | 39055 ft | 485 kts | 19° |
| 2026-04-29 08:22 | 24.30816 | 23.39841 | 39053 ft | 484 kts | 18° |
| 2026-04-29 08:23 | 24.36747 | 23.43249 | 39075 ft | 484 kts | 18° |
| 2026-04-29 08:23 | 24.42713 | 23.46717 | 39056 ft | 485 kts | 18° |
| 2026-04-29 08:24 | 24.48664 | 23.50199 | 39059 ft | 485 kts | 18° |
| 2026-04-29 08:24 | 24.54615 | 23.53689 | 39059 ft | 485 kts | 18° |
| 2026-04-29 08:25 | 24.60567 | 23.57182 | 39059 ft | 485 kts | 18° |
| 2026-04-29 08:25 | 24.66526 | 23.60682 | 39052 ft | 485 kts | 18° |
| 2026-04-29 08:26 | 24.72468 | 23.64176 | 39061 ft | 485 kts | 18° |
| 2026-04-29 08:26 | 24.78416 | 23.67676 | 39063 ft | 485 kts | 18° |
| 2026-04-29 08:27 | 24.84327 | 23.71159 | 39059 ft | 485 kts | 18° |
| 2026-04-29 08:27 | 24.90277 | 23.74668 | 39089 ft | 485 kts | 18° |
| 2026-04-29 08:28 | 24.96234 | 23.78186 | 39068 ft | 485 kts | 18° |
| 2026-04-29 08:28 | 25.02185 | 23.81704 | 39065 ft | 485 kts | 18° |
| 2026-04-29 08:29 | 25.08140 | 23.85227 | 39069 ft | 485 kts | 18° |
| 2026-04-29 08:29 | 25.14098 | 23.88758 | 39069 ft | 485 kts | 18° |
| 2026-04-29 08:30 | 25.23019 | 23.94052 | 39072 ft | 485 kts | 18° |
| 2026-04-29 08:31 | 25.28963 | 23.97583 | 39074 ft | 485 kts | 18° |
| 2026-04-29 08:31 | 25.34910 | 24.01120 | 39073 ft | 485 kts | 18° |
| 2026-04-29 08:32 | 25.40819 | 24.04639 | 39092 ft | 485 kts | 18° |
| 2026-04-29 08:32 | 25.46764 | 24.08184 | 39069 ft | 484 kts | 18° |
| 2026-04-29 08:33 | 25.52694 | 24.11724 | 39070 ft | 484 kts | 18° |
| 2026-04-29 08:33 | 25.58632 | 24.15271 | 39069 ft | 485 kts | 18° |
| 2026-04-29 08:34 | 25.64536 | 24.18801 | 39075 ft | 485 kts | 18° |
| 2026-04-29 08:34 | 25.70474 | 24.22357 | 39074 ft | 485 kts | 18° |
| 2026-04-29 08:35 | 25.76406 | 24.25914 | 39072 ft | 485 kts | 18° |
| 2026-04-29 08:35 | 25.82341 | 24.29476 | 39071 ft | 485 kts | 18° |
| 2026-04-29 08:36 | 25.88278 | 24.33044 | 39071 ft | 485 kts | 18° |
| 2026-04-29 08:36 | 25.94208 | 24.36612 | 39082 ft | 484 kts | 17° |
| 2026-04-29 08:37 | 26.00089 | 24.40155 | 39071 ft | 484 kts | 18° |
| 2026-04-29 08:37 | 26.06010 | 24.43724 | 39070 ft | 484 kts | 18° |
| 2026-04-29 08:38 | 26.11940 | 24.47302 | 39073 ft | 485 kts | 18° |
| 2026-04-29 08:38 | 26.17867 | 24.50885 | 39099 ft | 485 kts | 17° |
| 2026-04-29 08:39 | 26.23785 | 24.54468 | 39068 ft | 483 kts | 17° |
| 2026-04-29 08:39 | 26.29692 | 24.58048 | 39070 ft | 483 kts | 17° |
| 2026-04-29 08:40 | 26.35602 | 24.61631 | 39070 ft | 483 kts | 17° |
| 2026-04-29 08:40 | 26.41473 | 24.65195 | 39072 ft | 483 kts | 17° |
| 2026-04-29 08:41 | 26.47382 | 24.68787 | 39072 ft | 482 kts | 17° |
| 2026-04-29 08:41 | 26.53270 | 24.72372 | 39072 ft | 482 kts | 17° |
| 2026-04-29 08:42 | 26.59163 | 24.75963 | 39072 ft | 482 kts | 17° |
| 2026-04-29 08:42 | 26.65024 | 24.79538 | 39065 ft | 482 kts | 17° |
| 2026-04-29 08:43 | 26.70903 | 24.83128 | 39072 ft | 481 kts | 18° |
| 2026-04-29 08:43 | 26.76778 | 24.86722 | 39072 ft | 481 kts | 18° |
| 2026-04-29 08:44 | 26.82650 | 24.90318 | 39074 ft | 481 kts | 18° |
| 2026-04-29 08:44 | 26.88527 | 24.93919 | 39072 ft | 481 kts | 18° |
| 2026-04-29 08:45 | 26.94396 | 24.97531 | 39083 ft | 483 kts | 20° |
| 2026-04-29 08:45 | 26.97210 | 24.99688 | 39075 ft | 496 kts | 30° |
| 2026-04-29 08:45 | 26.99696 | 25.02376 | 39086 ft | 510 kts | 41° |
| 2026-04-29 08:46 | 27.04051 | 25.08769 | 39086 ft | 519 kts | 46° |
| 2026-04-29 08:46 | 27.08166 | 25.15459 | 39085 ft | 522 kts | 47° |
| 2026-04-29 08:47 | 27.12263 | 25.22198 | 39086 ft | 522 kts | 47° |
| 2026-04-29 08:47 | 27.16384 | 25.28906 | 39092 ft | 520 kts | 47° |
| 2026-04-29 08:48 | 27.20508 | 25.35580 | 39090 ft | 519 kts | 47° |
| 2026-04-29 08:48 | 27.24606 | 25.42207 | 39090 ft | 520 kts | 47° |
| 2026-04-29 08:49 | 27.28731 | 25.48888 | 39089 ft | 520 kts | 47° |
| 2026-04-29 08:49 | 27.32848 | 25.55570 | 39090 ft | 520 kts | 47° |
| 2026-04-29 08:50 | 27.36963 | 25.62261 | 39085 ft | 519 kts | 47° |
| 2026-04-29 08:50 | 27.41064 | 25.68941 | 39086 ft | 518 kts | 47° |
| 2026-04-29 08:51 | 27.45162 | 25.75624 | 39089 ft | 518 kts | 47° |
| 2026-04-29 08:51 | 27.49235 | 25.82275 | 39087 ft | 518 kts | 47° |
| 2026-04-29 08:52 | 27.53331 | 25.88975 | 39087 ft | 518 kts | 47° |
| 2026-04-29 08:52 | 27.57417 | 25.95669 | 39092 ft | 517 kts | 48° |
| 2026-04-29 08:53 | 27.61484 | 26.02346 | 39091 ft | 515 kts | 48° |
| 2026-04-29 08:53 | 27.65544 | 26.09017 | 39090 ft | 515 kts | 48° |
| 2026-04-29 08:54 | 27.69572 | 26.15644 | 39086 ft | 515 kts | 48° |
| 2026-04-29 08:54 | 27.73627 | 26.22327 | 39085 ft | 516 kts | 48° |
| 2026-04-29 08:55 | 27.77678 | 26.29014 | 39090 ft | 515 kts | 48° |
| 2026-04-29 08:55 | 27.81719 | 26.35698 | 39086 ft | 514 kts | 48° |
| 2026-04-29 08:56 | 27.85747 | 26.42368 | 39083 ft | 514 kts | 48° |
| 2026-04-29 08:56 | 27.89774 | 26.49047 | 39082 ft | 514 kts | 48° |
| 2026-04-29 08:57 | 27.93803 | 26.55740 | 39084 ft | 514 kts | 48° |
| 2026-04-29 08:57 | 27.97828 | 26.62435 | 39083 ft | 515 kts | 48° |
| 2026-04-29 08:58 | 28.01861 | 26.69152 | 39083 ft | 516 kts | 48° |
| 2026-04-29 08:58 | 28.05865 | 26.75836 | 39083 ft | 516 kts | 48° |
| 2026-04-29 08:59 | 28.09900 | 26.82580 | 39083 ft | 516 kts | 49° |
| 2026-04-29 08:59 | 28.13925 | 26.89320 | 39081 ft | 516 kts | 48° |
| 2026-04-29 09:00 | 28.17955 | 26.96076 | 39080 ft | 517 kts | 49° |
| 2026-04-29 09:00 | 28.21978 | 27.02832 | 39084 ft | 516 kts | 49° |
| 2026-04-29 09:01 | 28.25988 | 27.09577 | 39080 ft | 516 kts | 49° |
| 2026-04-29 09:01 | 28.29976 | 27.16296 | 39085 ft | 516 kts | 49° |
| 2026-04-29 09:02 | 28.33984 | 27.23058 | 39086 ft | 516 kts | 49° |
| 2026-04-29 09:02 | 28.37983 | 27.29818 | 39086 ft | 514 kts | 49° |
| 2026-04-29 09:03 | 28.41299 | 27.35432 | 39077 ft | 513 kts | 49° |
| 2026-04-29 09:03 | 28.45929 | 27.43279 | 39081 ft | 513 kts | 49° |
| 2026-04-29 09:04 | 28.49260 | 27.48934 | 39081 ft | 514 kts | 49° |
| 2026-04-29 09:04 | 28.53215 | 27.55656 | 39079 ft | 515 kts | 49° |
| 2026-04-29 09:05 | 28.57193 | 27.62431 | 39078 ft | 514 kts | 49° |
| 2026-04-29 09:05 | 28.61154 | 27.69191 | 39080 ft | 513 kts | 49° |
| 2026-04-29 09:06 | 28.65112 | 27.75952 | 39071 ft | 513 kts | 49° |
| 2026-04-29 09:06 | 28.69064 | 27.82714 | 39071 ft | 513 kts | 49° |
| 2026-04-29 09:07 | 28.73032 | 27.89490 | 39102 ft | 513 kts | 49° |
| 2026-04-29 09:07 | 28.76982 | 27.96233 | 39069 ft | 510 kts | 49° |
| 2026-04-29 09:08 | 28.80891 | 28.02914 | 39069 ft | 509 kts | 49° |
| 2026-04-29 09:08 | 28.84818 | 28.09634 | 39062 ft | 510 kts | 49° |
| 2026-04-29 09:09 | 28.88747 | 28.16388 | 39067 ft | 511 kts | 49° |
| 2026-04-29 09:09 | 28.92676 | 28.23167 | 39080 ft | 511 kts | 49° |
| 2026-04-29 09:10 | 28.96554 | 28.29874 | 39060 ft | 508 kts | 49° |
| 2026-04-29 09:10 | 29.00449 | 28.36614 | 39062 ft | 508 kts | 49° |
| 2026-04-29 09:11 | 29.04342 | 28.43355 | 39060 ft | 508 kts | 49° |
| 2026-04-29 09:11 | 29.08275 | 28.50080 | 39058 ft | 508 kts | 49° |
| 2026-04-29 09:12 | 29.12216 | 28.56795 | 39051 ft | 506 kts | 49° |
| 2026-04-29 09:12 | 29.16125 | 28.63468 | 39057 ft | 504 kts | 49° |
| 2026-04-29 09:13 | 29.20023 | 28.70137 | 39051 ft | 504 kts | 49° |
| 2026-04-29 09:13 | 29.23921 | 28.76818 | 39055 ft | 505 kts | 49° |
| 2026-04-29 09:14 | 29.27797 | 28.83477 | 39087 ft | 505 kts | 49° |
| 2026-04-29 09:14 | 29.31690 | 28.90179 | 39051 ft | 503 kts | 49° |
| 2026-04-29 09:15 | 29.35558 | 28.96847 | 39048 ft | 502 kts | 50° |
| 2026-04-29 09:15 | 29.39424 | 29.03538 | 39054 ft | 505 kts | 52° |
| 2026-04-29 09:15 | 29.40930 | 29.07226 | 39054 ft | 517 kts | 69° |
| 2026-04-29 09:16 | 29.41614 | 29.11290 | 39061 ft | 523 kts | 82° |
| 2026-04-29 09:16 | 29.41851 | 29.19659 | 39053 ft | 527 kts | 89° |
| 2026-04-29 09:17 | 29.41657 | 29.28093 | 39051 ft | 529 kts | 90° |
| 2026-04-29 09:17 | 29.41549 | 29.32250 | 38881 ft | 528 kts | 90° |
| 2026-04-29 09:17 | 29.41454 | 29.36454 | 38653 ft | 526 kts | 89° |
| 2026-04-29 09:17 | 29.41377 | 29.40641 | 38278 ft | 524 kts | 89° |
| 2026-04-29 09:18 | 29.41311 | 29.44824 | 37621 ft | 525 kts | 88° |
| 2026-04-29 09:18 | 29.41253 | 29.49016 | 36932 ft | 527 kts | 88° |
| 2026-04-29 09:18 | 29.41198 | 29.53236 | 36218 ft | 530 kts | 87° |
| 2026-04-29 09:18 | 29.41143 | 29.57468 | 35457 ft | 533 kts | 87° |
| 2026-04-29 09:19 | 29.41086 | 29.61736 | 34647 ft | 538 kts | 87° |
| 2026-04-29 09:19 | 29.41027 | 29.66047 | 33715 ft | 544 kts | 86° |
| 2026-04-29 09:19 | 29.40965 | 29.70411 | 32739 ft | 548 kts | 86° |
| 2026-04-29 09:19 | 29.40900 | 29.74796 | 31804 ft | 552 kts | 86° |
| 2026-04-29 09:20 | 29.40832 | 29.79198 | 31141 ft | 550 kts | 86° |
| 2026-04-29 09:20 | 29.40758 | 29.83558 | 30561 ft | 545 kts | 86° |
| 2026-04-29 09:20 | 29.40685 | 29.87888 | 29921 ft | 541 kts | 86° |
| 2026-04-29 09:20 | 29.40610 | 29.92170 | 29124 ft | 530 kts | 86° |
| 2026-04-29 09:21 | 29.40535 | 29.96347 | 28345 ft | 516 kts | 86° |
| 2026-04-29 09:21 | 29.40462 | 30.00360 | 27686 ft | 502 kts | 86° |
| 2026-04-29 09:21 | 29.40390 | 30.04315 | 27055 ft | 489 kts | 86° |
| 2026-04-29 09:21 | 29.40321 | 30.08164 | 26400 ft | 478 kts | 86° |
| 2026-04-29 09:22 | 29.40254 | 30.11925 | 25756 ft | 468 kts | 86° |
| 2026-04-29 09:22 | 29.40188 | 30.15621 | 25137 ft | 458 kts | 86° |
| 2026-04-29 09:22 | 29.40123 | 30.19237 | 24517 ft | 449 kts | 86° |
| 2026-04-29 09:22 | 29.40059 | 30.22790 | 23898 ft | 442 kts | 86° |
| 2026-04-29 09:23 | 29.39994 | 30.26281 | 23263 ft | 434 kts | 86° |
| 2026-04-29 09:23 | 29.39930 | 30.29715 | 22648 ft | 428 kts | 87° |
| 2026-04-29 09:23 | 29.39867 | 30.33134 | 22057 ft | 429 kts | 87° |
| 2026-04-29 09:23 | 29.39834 | 30.36568 | 21451 ft | 432 kts | 87° |
| 2026-04-29 09:24 | 29.40038 | 30.39986 | 20873 ft | 427 kts | 73° |
| 2026-04-29 09:24 | 29.41035 | 30.43143 | 20325 ft | 416 kts | 58° |
| 2026-04-29 09:24 | 29.42394 | 30.46001 | 19779 ft | 412 kts | 55° |
| 2026-04-29 09:24 | 29.43818 | 30.48837 | 19239 ft | 409 kts | 54° |
| 2026-04-29 09:25 | 29.45249 | 30.51649 | 18704 ft | 406 kts | 54° |
| 2026-04-29 09:25 | 29.46678 | 30.54429 | 18144 ft | 403 kts | 54° |
| 2026-04-29 09:25 | 29.48106 | 30.57186 | 17567 ft | 399 kts | 54° |
| 2026-04-29 09:25 | 29.49527 | 30.59912 | 16923 ft | 394 kts | 54° |
| 2026-04-29 09:26 | 29.50910 | 30.62562 | 16320 ft | 380 kts | 54° |
| 2026-04-29 09:26 | 29.52258 | 30.65140 | 15821 ft | 375 kts | 54° |
| 2026-04-29 09:26 | 29.53600 | 30.67691 | 15268 ft | 372 kts | 54° |
| 2026-04-29 09:26 | 29.54941 | 30.70227 | 14763 ft | 369 kts | 54° |
| 2026-04-29 09:27 | 29.56272 | 30.72733 | 14269 ft | 366 kts | 54° |
| 2026-04-29 09:27 | 29.57598 | 30.75214 | 13725 ft | 362 kts | 54° |
| 2026-04-29 09:27 | 29.58902 | 30.77637 | 13086 ft | 359 kts | 54° |
| 2026-04-29 09:27 | 29.60213 | 30.80054 | 12459 ft | 355 kts | 54° |
| 2026-04-29 09:28 | 29.61523 | 30.82444 | 11829 ft | 351 kts | 54° |
| 2026-04-29 09:28 | 29.62829 | 30.84802 | 11219 ft | 347 kts | 54° |
| 2026-04-29 09:28 | 29.64116 | 30.87103 | 10622 ft | 336 kts | 54° |
| 2026-04-29 09:28 | 29.65356 | 30.89306 | 10183 ft | 319 kts | 54° |
| 2026-04-29 09:29 | 29.66525 | 30.91376 | 9942 ft | 301 kts | 54° |
| 2026-04-29 09:29 | 29.68757 | 30.95320 | 8829 ft | 287 kts | 54° |
| 2026-04-29 09:29 | 29.69839 | 30.97212 | 8294 ft | 281 kts | 54° |
| 2026-04-29 09:30 | 29.70918 | 30.99085 | 7685 ft | 283 kts | 54° |
| 2026-04-29 09:30 | 29.72014 | 31.00991 | 7141 ft | 287 kts | 54° |
| 2026-04-29 09:30 | 29.73222 | 31.02761 | 6619 ft | 283 kts | 42° |
| 2026-04-29 09:30 | 29.74722 | 31.04211 | 6011 ft | 280 kts | 36° |
| 2026-04-29 09:31 | 29.76277 | 31.05563 | 5316 ft | 280 kts | 35° |
| 2026-04-29 09:31 | 29.77848 | 31.06895 | 4603 ft | 281 kts | 34° |
| 2026-04-29 09:31 | 29.79498 | 31.08079 | 3857 ft | 278 kts | 23° |
| 2026-04-29 09:31 | 29.81256 | 31.08975 | 3226 ft | 272 kts | 22° |
| 2026-04-29 09:32 | 29.82970 | 31.09792 | 2920 ft | 263 kts | 21° |
| 2026-04-29 09:32 | 29.84664 | 31.10577 | 2677 ft | 262 kts | 21° |
| 2026-04-29 09:32 | 29.86318 | 31.11338 | 2506 ft | 247 kts | 21° |
| 2026-04-29 09:32 | 29.87845 | 31.12065 | 2483 ft | 238 kts | 21° |
| 2026-04-29 09:33 | 29.89311 | 31.12939 | 2484 ft | 239 kts | 34° |
| 2026-04-29 09:33 | 29.90546 | 31.14227 | 2481 ft | 241 kts | 46° |
| 2026-04-29 09:33 | 29.91657 | 31.15662 | 2481 ft | 240 kts | 47° |
| 2026-04-29 09:33 | 29.92748 | 31.17115 | 2486 ft | 240 kts | 48° |
| 2026-04-29 09:34 | 29.93854 | 31.18557 | 2499 ft | 240 kts | 46° |
| 2026-04-29 09:34 | 29.94967 | 31.19985 | 2494 ft | 239 kts | 46° |
| 2026-04-29 09:34 | 29.96074 | 31.21418 | 2486 ft | 239 kts | 47° |
| 2026-04-29 09:34 | 29.97170 | 31.22864 | 2483 ft | 239 kts | 47° |
| 2026-04-29 09:35 | 29.98248 | 31.24299 | 2518 ft | 234 kts | 46° |
| 2026-04-29 09:35 | 29.99291 | 31.25685 | 2548 ft | 219 kts | 46° |
| 2026-04-29 09:35 | 30.00267 | 31.26971 | 2572 ft | 209 kts | 47° |
| 2026-04-29 09:35 | 30.01210 | 31.28220 | 2594 ft | 202 kts | 47° |
| 2026-04-29 09:36 | 30.02088 | 31.29384 | 2601 ft | 183 kts | 47° |
| 2026-04-29 09:36 | 30.02887 | 31.30438 | 2595 ft | 166 kts | 47° |
| 2026-04-29 09:36 | 30.03624 | 31.31415 | 2546 ft | 158 kts | 47° |
| 2026-04-29 09:36 | 30.04331 | 31.32358 | 2347 ft | 156 kts | 48° |
| 2026-04-29 09:37 | 30.05025 | 31.33281 | 2128 ft | 148 kts | 45° |
| 2026-04-29 09:37 | 30.05689 | 31.34159 | 1934 ft | 144 kts | 47° |
| 2026-04-29 09:37 | 30.06347 | 31.35034 | 1749 ft | 144 kts | 48° |
| 2026-04-29 09:37 | 30.06981 | 31.35875 | 1556 ft | 134 kts | 47° |
| 2026-04-29 09:38 | 30.07584 | 31.36687 | 1393 ft | 133 kts | 46° |
| 2026-04-29 09:38 | 30.08184 | 31.37500 | 1175 ft | 133 kts | 45° |
| 2026-04-29 09:38 | 30.08805 | 31.38295 | 942 ft | 134 kts | 45° |
| 2026-04-29 09:38 | 30.09415 | 31.39117 | 683 ft | 135 kts | 44° |
| 2026-04-29 09:39 | 30.10039 | 31.39917 | 411 ft | 132 kts | 46° |
| 2026-04-29 09:39 | 30.10585 | 31.40642 | 379 ft | 96 kts | 49° |
| 2026-04-29 09:39 | 30.10894 | 31.41057 | 376 ft | 47 kts | 49° |
| 2026-04-29 09:39 | 30.11101 | 31.41335 | 378 ft | 45 kts | 49° |
| 2026-04-29 09:40 | 30.11322 | 31.41557 | 378 ft | 37 kts | 27° |
| 2026-04-29 09:40 | 30.11502 | 31.41630 | 378 ft | 13 kts | 6° |
| 2026-04-29 09:40 | 30.11507 | 31.41630 | 378 ft | 0 kts | 2° |
| 2026-04-29 09:41 | 30.11510 | 31.41630 | 378 ft | 4 kts | 0° |
| 2026-04-29 09:42 | 30.11562 | 31.41601 | 378 ft | 10 kts | 309° |
| 2026-04-29 09:42 | 30.11549 | 31.41530 | 378 ft | 10 kts | 231° |
| 2026-04-29 09:42 | 30.11491 | 31.41453 | 378 ft | 16 kts | 229° |
| 2026-04-29 09:42 | 30.11411 | 31.41347 | 378 ft | 20 kts | 229° |
| 2026-04-29 09:43 | 30.11317 | 31.41222 | 378 ft | 21 kts | 229° |
| 2026-04-29 09:43 | 30.11221 | 31.41094 | 378 ft | 21 kts | 229° |
| 2026-04-29 09:43 | 30.11127 | 31.40969 | 378 ft | 21 kts | 228° |
| 2026-04-29 09:43 | 30.11031 | 31.40842 | 378 ft | 21 kts | 230° |
| 2026-04-29 09:44 | 30.10932 | 31.40709 | 378 ft | 23 kts | 229° |
| 2026-04-29 09:44 | 30.10834 | 31.40578 | 378 ft | 22 kts | 229° |
| 2026-04-29 09:44 | 30.10734 | 31.40447 | 378 ft | 21 kts | 228° |
| 2026-04-29 09:44 | 30.10691 | 31.40327 | 378 ft | 14 kts | 301° |
| 2026-04-29 09:45 | 30.10688 | 31.40227 | 378 ft | 15 kts | 230° |
| 2026-04-29 09:45 | 30.10609 | 31.40124 | 378 ft | 19 kts | 229° |
| 2026-04-29 09:45 | 30.10518 | 31.40002 | 378 ft | 19 kts | 229° |
| 2026-04-29 09:45 | 30.10510 | 31.39877 | 378 ft | 17 kts | 321° |
| 2026-04-29 09:46 | 30.10629 | 31.39830 | 378 ft | 19 kts | 346° |
| 2026-04-29 09:46 | 30.10733 | 31.39800 | 378 ft | 13 kts | 346° |
| 2026-04-29 09:46 | 30.10823 | 31.39780 | 378 ft | 10 kts | 15° |
| 2026-04-29 09:46 | 30.10853 | 31.39836 | 378 ft | 5 kts | 74° |
| 2026-04-29 09:47 | 30.10858 | 31.39860 | 378 ft | 0 kts | 74° |
| 2026-04-29 09:47 | 30.10859 | 31.39860 | 378 ft | 0 kts | 74° |